Time;durP1;ratioP1;P1;durP2;ratioP2;P2;SDS_P1;SDS_P2;PMS_P1;PMS_P2;Temp;Humidity;BMP_temperature;BMP_pressure;BME280_temperature;BME280_humidity;BME280_pressure;Samples;Min_cycle;Max_cycle;Signal;HPM_P1;HPM_P2
2021/05/29 00:02:17;;;;;;;4.28;3.72;;;;;;;14.98;61.84;99866.34;5053443;28;20190;-74
2021/05/29 00:04:44;;;;;;;3.35;3.05;;;;;;;15.13;61.47;99861.69;5053437;28;20296;-74
2021/05/29 00:07:10;;;;;;;4.13;3.60;;;;;;;15.20;61.28;99862.94;5052854;28;20186;-75
2021/05/29 00:09:37;;;;;;;4.18;3.67;;;;;;;15.19;61.12;99862.06;5053692;28;20276;-73
2021/05/29 00:12:06;;;;;;;3.70;3.40;;;;;;;15.15;60.92;99866.00;5053552;28;20558;-75
2021/05/29 00:14:34;;;;;;;3.30;2.97;;;;;;;15.08;59.27;99869.25;5052866;28;20217;-74
2021/05/29 00:17:01;;;;;;;3.45;3.05;;;;;;;15.14;60.06;99872.38;5053783;28;20236;-74
2021/05/29 00:19:27;;;;;;;5.93;5.30;;;;;;;14.85;62.12;99871.78;5053535;28;20190;-74
2021/05/29 00:21:53;;;;;;;3.88;3.45;;;;;;;14.65;62.74;99870.47;5053309;28;20596;-74
2021/05/29 00:24:19;;;;;;;4.28;3.60;;;;;;;14.81;62.37;99872.97;5053540;28;20683;-73
2021/05/29 00:26:45;;;;;;;4.15;3.75;;;;;;;14.40;64.20;99865.88;5052984;28;20228;-73
2021/05/29 00:29:12;;;;;;;3.80;3.50;;;;;;;14.36;64.76;99870.66;5053009;28;20287;-74
2021/05/29 00:31:38;;;;;;;4.22;3.90;;;;;;;14.14;66.24;99862.28;5053388;28;20305;-73
2021/05/29 00:34:05;;;;;;;5.15;4.75;;;;;;;14.17;66.57;99864.78;5053300;28;20566;-75
2021/05/29 00:36:31;;;;;;;5.45;4.70;;;;;;;14.17;66.71;99867.50;5053119;28;20661;-75
2021/05/29 00:38:57;;;;;;;5.00;4.50;;;;;;;13.95;67.59;99870.78;5052387;28;20231;-74
2021/05/29 00:41:23;;;;;;;4.32;3.92;;;;;;;14.08;66.89;99865.41;5053028;28;20215;-75
2021/05/29 00:43:49;;;;;;;5.10;4.60;;;;;;;13.91;67.46;99856.59;5053274;28;20195;-74
2021/05/29 00:46:15;;;;;;;6.95;5.38;;;;;;;13.72;68.45;99853.41;5053056;28;20310;-75
2021/05/29 00:48:42;;;;;;;7.63;4.60;;;;;;;13.88;67.93;99848.69;5053102;28;20183;-74
2021/05/29 00:51:09;;;;;;;5.90;5.07;;;;;;;13.91;67.69;99853.91;5052580;28;20207;-75
2021/05/29 00:53:36;;;;;;;8.45;5.72;;;;;;;13.86;68.02;99850.66;5052635;28;20196;-75
2021/05/29 00:56:04;;;;;;;5.53;5.03;;;;;;;13.90;68.21;99852.16;5052986;28;20222;-75
2021/05/29 00:58:31;;;;;;;4.72;4.32;;;;;;;14.00;67.58;99837.97;5052482;28;20698;-72
2021/05/29 01:00:58;;;;;;;6.30;4.95;;;;;;;13.83;68.58;99836.44;5052977;28;20329;-74
2021/05/29 01:03:25;;;;;;;4.57;4.18;;;;;;;13.90;67.69;99846.72;5052752;28;20234;-75
2021/05/29 01:05:52;;;;;;;4.78;4.38;;;;;;;13.86;67.62;99844.34;5052213;28;20320;-73
2021/05/29 01:08:18;;;;;;;5.20;4.00;;;;;;;13.74;67.94;99851.47;5052605;28;20196;-75
2021/05/29 01:10:44;;;;;;;4.72;4.05;;;;;;;13.75;67.93;99847.78;5052845;28;20273;-74
2021/05/29 01:13:12;;;;;;;8.18;4.03;;;;;;;13.34;69.58;99851.38;5052136;28;20898;-74
2021/05/29 01:15:41;;;;;;;4.25;3.80;;;;;;;13.10;70.40;99854.69;5052861;28;20191;-75
2021/05/29 01:18:09;;;;;;;6.20;4.30;;;;;;;13.22;70.15;99857.56;5052519;28;20213;-74
2021/05/29 01:20:36;;;;;;;4.63;4.22;;;;;;;13.38;69.12;99852.06;5052610;28;20237;-73
2021/05/29 01:23:03;;;;;;;5.63;4.70;;;;;;;13.52;68.15;99861.03;5052631;28;20202;-74
2021/05/29 01:25:32;;;;;;;5.90;4.53;;;;;;;13.55;67.96;99860.81;5052135;28;20274;-75
2021/05/29 01:28:01;;;;;;;4.78;4.38;;;;;;;13.46;68.24;99855.16;5052382;28;20190;-74
2021/05/29 01:30:29;;;;;;;7.78;6.00;;;;;;;13.49;68.48;99854.94;5052254;28;20675;-74
2021/05/29 01:32:58;;;;;;;6.63;4.88;;;;;;;13.38;69.33;99861.03;5051919;28;20228;-74
2021/05/29 01:35:25;;;;;;;4.00;3.60;;;;;;;13.25;69.06;99860.06;5052459;28;20201;-75
2021/05/29 01:37:54;;;;;;;4.10;3.80;;;;;;;13.23;69.55;99862.00;5052541;28;20186;-74
2021/05/29 01:40:21;;;;;;;6.80;4.50;;;;;;;13.24;68.70;99855.66;5052092;28;20228;-74
2021/05/29 01:42:47;;;;;;;4.28;3.85;;;;;;;13.13;68.86;99864.44;5052626;28;20220;-73
2021/05/29 01:45:14;;;;;;;5.03;4.35;;;;;;;13.21;68.88;99863.97;5052422;28;20290;-73
2021/05/29 01:47:44;;;;;;;5.38;4.80;;;;;;;13.04;69.64;99859.63;5052217;28;20182;-74
2021/05/29 01:50:13;;;;;;;5.85;4.45;;;;;;;13.16;69.26;99856.16;5052227;28;20235;-73
2021/05/29 01:52:50;;;;;;;8.50;4.78;;;;;;;12.90;70.06;99849.72;5052303;28;20271;-73
2021/05/29 01:55:18;;;;;;;4.90;4.40;;;;;;;12.90;70.33;99852.41;5051717;28;20190;-74
2021/05/29 01:57:46;;;;;;;4.72;3.95;;;;;;;12.69;71.47;99851.94;5036546;28;20265;-75
2021/05/29 02:00:14;;;;;;;4.22;3.83;;;;;;;12.79;70.98;99863.91;5051873;28;20200;-74
2021/05/29 02:02:40;;;;;;;4.10;3.80;;;;;;;12.88;70.72;99852.50;5051944;28;20197;-73
2021/05/29 02:05:12;;;;;;;4.38;3.97;;;;;;;12.91;70.44;99857.72;5052095;28;20570;-73
2021/05/29 02:07:39;;;;;;;4.53;3.97;;;;;;;12.63;71.34;99850.47;5051796;28;20273;-74
2021/05/29 02:10:06;;;;;;;5.32;4.18;;;;;;;12.50;72.26;99855.81;5054110;28;20281;-74
2021/05/29 02:12:41;;;;;;;5.72;3.67;;;;;;;12.24;73.20;99857.38;5056026;28;20288;-75
2021/05/29 02:15:10;;;;;;;5.97;4.10;;;;;;;12.37;72.76;99860.22;5055805;28;20597;-74
2021/05/29 02:17:36;;;;;;;4.15;3.75;;;;;;;12.45;72.40;99859.72;5055798;28;20248;-75
2021/05/29 02:20:05;;;;;;;3.88;3.53;;;;;;;12.44;72.56;99856.16;5056057;28;20603;-75
2021/05/29 02:22:31;;;;;;;4.65;3.45;;;;;;;12.23;73.23;99862.88;5056118;28;20979;-74
2021/05/29 02:24:57;;;;;;;5.15;4.00;;;;;;;12.10;74.46;99866.31;5056194;28;20186;-74
2021/05/29 02:27:23;;;;;;;4.82;3.97;;;;;;;12.02;74.87;99868.59;5055878;28;20297;-74
2021/05/29 02:29:49;;;;;;;3.95;3.65;;;;;;;12.27;73.58;99868.00;5055438;28;20272;-73
2021/05/29 02:32:16;;;;;;;4.68;3.85;;;;;;;12.22;73.70;99870.09;5055759;28;20639;-75
2021/05/29 02:34:42;;;;;;;4.50;3.80;;;;;;;12.12;73.93;99868.94;5055691;28;20197;-75
2021/05/29 02:37:08;;;;;;;4.32;3.40;;;;;;;12.14;74.18;99863.44;5055496;28;20212;-74
2021/05/29 02:39:35;;;;;;;4.30;3.90;;;;;;;12.25;73.77;99860.94;5055033;28;20320;-75
2021/05/29 02:42:01;;;;;;;4.43;4.03;;;;;;;12.26;73.81;99860.88;5055286;28;20655;-74
2021/05/29 02:44:27;;;;;;;4.35;3.95;;;;;;;12.09;74.73;99869.09;5054973;28;20266;-73
2021/05/29 02:46:54;;;;;;;4.22;3.83;;;;;;;12.15;74.72;99882.25;5055606;28;20185;-73
2021/05/29 02:49:21;;;;;;;5.35;3.95;;;;;;;12.02;75.36;99875.84;5055119;28;20266;-74
2021/05/29 02:51:47;;;;;;;4.57;3.90;;;;;;;12.03;75.32;99874.88;5054643;28;20246;-74
2021/05/29 02:54:14;;;;;;;4.97;4.47;;;;;;;12.13;74.77;99881.47;5055295;28;20577;-75
2021/05/29 02:56:40;;;;;;;6.75;3.78;;;;;;;11.94;75.41;99879.00;5055219;28;20689;-74
2021/05/29 02:59:06;;;;;;;4.47;3.83;;;;;;;11.94;75.27;99878.13;5055349;28;20687;-75
2021/05/29 03:01:32;;;;;;;3.90;3.50;;;;;;;11.78;76.15;99884.41;5054627;28;20293;-73
2021/05/29 03:03:58;;;;;;;3.97;3.67;;;;;;;11.59;76.94;99881.03;5054933;28;20240;-74
2021/05/29 03:06:25;;;;;;;4.93;3.60;;;;;;;11.56;77.43;99878.53;5055189;28;20186;-72
2021/05/29 03:08:52;;;;;;;5.85;4.00;;;;;;;11.60;77.25;99880.94;5054837;28;20202;-73
2021/05/29 03:11:18;;;;;;;4.60;4.00;;;;;;;11.59;77.27;99879.19;5054528;28;20261;-74
2021/05/29 03:13:45;;;;;;;4.43;3.38;;;;;;;11.47;77.83;99891.56;5053910;28;20228;-75
2021/05/29 03:16:12;;;;;;;6.63;4.28;;;;;;;11.46;77.95;99889.84;5054431;28;20237;-74
2021/05/29 03:18:38;;;;;;;4.10;3.80;;;;;;;11.51;77.48;99892.28;5054740;28;20272;-75
2021/05/29 03:21:04;;;;;;;5.20;4.38;;;;;;;11.43;78.01;99897.22;5054038;28;20632;-74
2021/05/29 03:23:31;;;;;;;6.07;4.50;;;;;;;11.51;77.72;99902.16;5054828;28;20522;-74
2021/05/29 03:25:57;;;;;;;4.20;3.85;;;;;;;11.53;77.50;99902.94;5054707;28;20277;-75
2021/05/29 03:28:24;;;;;;;4.30;3.90;;;;;;;11.54;77.30;99902.00;5054722;28;20713;-76
2021/05/29 03:30:50;;;;;;;5.00;4.50;;;;;;;11.36;77.87;99903.91;5053972;28;20182;-75
2021/05/29 03:33:16;;;;;;;6.80;4.10;;;;;;;11.39;78.12;99906.44;5054117;28;20205;-74
2021/05/29 03:35:42;;;;;;;4.10;3.70;;;;;;;11.43;77.78;99902.63;5054626;28;20236;-75
2021/05/29 03:38:09;;;;;;;4.57;3.60;;;;;;;11.41;77.51;99907.22;5054388;28;20723;-75
2021/05/29 03:40:36;;;;;;;4.50;3.78;;;;;;;11.40;77.70;99903.66;5054043;28;20237;-75
2021/05/29 03:43:02;;;;;;;6.63;3.70;;;;;;;11.43;77.08;99905.31;5054399;28;20288;-73
2021/05/29 03:45:28;;;;;;;4.70;4.20;;;;;;;11.21;78.12;99911.03;5054397;28;20319;-75
2021/05/29 03:47:54;;;;;;;4.50;4.10;;;;;;;11.43;77.22;99916.09;5054567;28;20206;-76
2021/05/29 03:50:22;;;;;;;4.30;3.90;;;;;;;11.53;76.59;99916.44;5054299;28;20275;-74
2021/05/29 03:52:49;;;;;;;4.65;4.22;;;;;;;11.51;76.24;99915.66;5054285;28;20893;-76
2021/05/29 03:55:17;;;;;;;4.00;3.70;;;;;;;11.33;77.23;99913.06;5054443;28;20248;-73
2021/05/29 03:57:44;;;;;;;7.03;4.70;;;;;;;11.19;77.56;99904.84;5053947;28;20225;-75
2021/05/29 04:00:14;;;;;;;6.68;4.18;;;;;;;11.35;76.79;99913.84;5053592;28;20239;-75
2021/05/29 04:02:40;;;;;;;4.30;3.95;;;;;;;11.18;77.66;99916.59;5053861;28;20284;-74
2021/05/29 04:05:08;;;;;;;5.45;4.03;;;;;;;11.25;77.50;99918.84;5053791;28;20196;-73
2021/05/29 04:07:34;;;;;;;5.00;4.18;;;;;;;11.22;77.69;99923.56;5053860;28;20224;-74
2021/05/29 04:10:00;;;;;;;10.32;5.07;;;;;;;11.23;77.59;99923.47;5053278;28;20267;-73
2021/05/29 04:12:27;;;;;;;4.50;4.10;;;;;;;11.15;77.67;99914.94;5053462;28;20634;-74
2021/05/29 04:14:54;;;;;;;6.15;4.88;;;;;;;11.21;77.57;99924.50;5053207;28;20197;-73
2021/05/29 04:17:20;;;;;;;4.78;4.25;;;;;;;11.17;77.08;99923.81;5053203;28;20300;-76
2021/05/29 04:19:46;;;;;;;5.65;4.35;;;;;;;11.33;76.60;99922.94;5053727;28;20182;-74
2021/05/29 04:22:12;;;;;;;5.80;4.28;;;;;;;11.31;76.38;99924.88;5053614;28;20227;-74
2021/05/29 04:24:38;;;;;;;5.05;4.65;;;;;;;11.38;76.08;99932.53;5053073;28;20201;-73
2021/05/29 04:27:05;;;;;;;5.25;4.38;;;;;;;11.48;75.45;99933.75;5053516;28;20187;-74
2021/05/29 04:29:32;;;;;;;5.28;4.55;;;;;;;11.70;74.44;99937.91;5053357;28;20185;-74
2021/05/29 04:32:00;;;;;;;5.40;4.68;;;;;;;11.88;73.38;99934.19;5053003;28;20201;-75
2021/05/29 04:34:26;;;;;;;6.25;4.63;;;;;;;11.92;72.81;99943.00;5052189;28;20189;-73
2021/05/29 04:36:52;;;;;;;4.85;4.30;;;;;;;11.96;71.62;99930.16;5052826;28;20188;-75
2021/05/29 04:39:18;;;;;;;5.03;4.18;;;;;;;12.14;71.15;99937.19;5052716;28;20237;-73
2021/05/29 04:41:44;;;;;;;4.75;4.03;;;;;;;12.04;71.32;99939.56;5052201;28;20321;-75
2021/05/29 04:44:10;;;;;;;7.38;4.57;;;;;;;12.25;70.21;99940.09;5053298;28;20201;-74
2021/05/29 04:46:39;;;;;;;6.05;4.35;;;;;;;12.37;69.56;99943.03;5053111;28;20609;-74
2021/05/29 04:49:08;;;;;;;8.25;4.22;;;;;;;12.48;69.28;99940.56;5052455;28;20196;-74
2021/05/29 04:51:34;;;;;;;4.43;4.10;;;;;;;12.57;68.34;99937.28;5052660;28;20226;-73
2021/05/29 04:54:00;;;;;;;3.75;3.40;;;;;;;12.59;67.84;99953.41;5052859;28;20281;-74
2021/05/29 04:56:27;;;;;;;4.60;4.20;;;;;;;12.81;67.03;99942.16;5052574;28;20535;-74
2021/05/29 04:58:53;;;;;;;4.15;3.75;;;;;;;12.88;66.39;99949.78;5052928;28;20201;-75
2021/05/29 05:01:19;;;;;;;3.97;3.08;;;;;;;13.09;65.58;99942.19;5052825;28;20206;-74
2021/05/29 05:03:45;;;;;;;6.30;3.88;;;;;;;13.54;63.90;99945.66;5052861;28;20538;-75
2021/05/29 05:06:12;;;;;;;4.25;3.85;;;;;;;13.48;63.51;99956.88;5053202;28;20319;-74
2021/05/29 05:08:39;;;;;;;3.70;3.20;;;;;;;13.23;64.48;99945.81;5052786;28;20697;-74
2021/05/29 05:11:05;;;;;;;4.60;3.38;;;;;;;13.05;65.01;99948.75;5052067;28;20282;-75
2021/05/29 05:13:31;;;;;;;5.25;3.80;;;;;;;12.91;65.64;99948.72;5052259;28;20280;-74
2021/05/29 05:15:57;;;;;;;7.93;3.97;;;;;;;12.87;65.39;99947.22;5052302;28;20286;-75
2021/05/29 05:18:23;;;;;;;4.10;3.67;;;;;;;12.70;66.05;99940.97;5052155;28;20285;-75
2021/05/29 05:20:50;;;;;;;6.93;4.18;;;;;;;12.64;66.45;99943.19;5052266;28;20603;-75
2021/05/29 05:23:22;;;;;;;4.35;3.40;;;;;;;12.64;66.23;99938.69;5052308;28;20201;-74
2021/05/29 05:25:48;;;;;;;4.10;3.70;;;;;;;12.65;66.32;99948.50;5052092;28;20231;-73
2021/05/29 05:28:14;;;;;;;4.57;4.18;;;;;;;12.87;65.72;99944.50;5051979;28;20209;-74
2021/05/29 05:30:40;;;;;;;5.18;3.70;;;;;;;12.94;65.22;99951.25;5052446;28;20264;-74
2021/05/29 05:33:07;;;;;;;7.65;4.22;;;;;;;13.06;64.92;99950.47;5052678;28;20625;-74
2021/05/29 05:35:33;;;;;;;4.30;3.75;;;;;;;13.40;63.94;99952.91;5052201;28;20580;-74
2021/05/29 05:37:59;;;;;;;4.68;3.90;;;;;;;13.58;62.77;99965.25;5052148;28;20186;-75
2021/05/29 05:40:26;;;;;;;4.32;3.92;;;;;;;13.78;62.15;99963.94;5051709;28;20324;-74
2021/05/29 05:42:53;;;;;;;4.95;3.75;;;;;;;14.03;61.55;99965.03;5052343;28;20190;-73
2021/05/29 05:45:19;;;;;;;4.55;4.10;;;;;;;14.39;60.36;99962.56;5051335;28;20297;-75
2021/05/29 05:47:45;;;;;;;4.55;4.13;;;;;;;14.47;60.04;99964.75;5051892;28;20544;-74
2021/05/29 05:50:12;;;;;;;4.32;3.85;;;;;;;14.51;60.23;99965.41;5051672;28;20609;-75
2021/05/29 05:52:39;;;;;;;4.30;3.95;;;;;;;14.36;60.04;99968.19;5051590;28;20207;-75
2021/05/29 05:55:06;;;;;;;4.43;3.85;;;;;;;14.44;60.23;99972.22;5052191;28;20186;-74
2021/05/29 05:57:33;;;;;;;6.93;4.22;;;;;;;14.63;59.61;99980.84;5051854;28;20205;-74
2021/05/29 06:00:00;;;;;;;6.80;4.05;;;;;;;14.65;59.41;99988.88;5052059;28;20195;-73
2021/05/29 06:02:26;;;;;;;5.38;3.45;;;;;;;14.62;59.46;99984.53;5051817;28;20294;-75
2021/05/29 06:04:52;;;;;;;3.90;3.40;;;;;;;14.82;58.74;99982.28;5051728;28;20206;-74
2021/05/29 06:07:19;;;;;;;5.35;3.97;;;;;;;14.71;59.31;99980.31;5052340;28;20217;-75
2021/05/29 06:09:45;;;;;;;3.45;3.15;;;;;;;14.50;59.80;99988.06;5052149;28;20650;-75
2021/05/29 06:12:11;;;;;;;5.40;3.20;;;;;;;14.58;59.35;99991.13;5051940;28;20204;-75
2021/05/29 06:20:10;;;;;;;3.45;3.15;;;;;;;15.35;56.70;99988.47;5051745;28;20191;-73
2021/05/29 06:22:36;;;;;;;3.50;3.20;;;;;;;15.31;56.55;99990.53;5052421;28;20240;-74
2021/05/29 06:25:04;;;;;;;3.30;3.00;;;;;;;15.32;56.37;99986.84;5052165;28;20636;-74
2021/05/29 06:27:30;;;;;;;3.25;2.95;;;;;;;15.51;56.04;99989.09;5051582;28;20888;-74
2021/05/29 06:29:57;;;;;;;3.22;2.88;;;;;;;15.68;55.28;99995.16;5051943;28;20262;-74
2021/05/29 06:32:23;;;;;;;4.95;3.20;;;;;;;15.67;55.37;99990.69;5051386;28;20242;-74
2021/05/29 06:34:49;;;;;;;3.28;2.97;;;;;;;15.75;54.94;99994.59;5051322;28;20231;-74
2021/05/29 06:37:15;;;;;;;4.07;3.15;;;;;;;15.88;54.75;100001.88;5051540;28;20205;-76
2021/05/29 06:39:44;;;;;;;4.88;3.20;;;;;;;15.69;54.89;99994.16;5051111;28;20233;-73
2021/05/29 06:42:13;;;;;;;8.85;3.42;;;;;;;16.01;54.17;99997.28;5051236;28;20285;-75
2021/05/29 06:44:40;;;;;;;3.78;3.25;;;;;;;16.22;53.56;99998.34;5051363;28;20318;-75
2021/05/29 06:47:07;;;;;;;3.30;3.05;;;;;;;16.44;52.86;99997.59;5051600;28;20991;-74
2021/05/29 06:49:35;;;;;;;6.45;4.35;;;;;;;16.59;52.49;99998.25;5052035;28;20319;-73
2021/05/29 06:52:05;;;;;;;6.38;2.92;;;;;;;16.78;52.08;100003.16;5051579;28;20281;-74
2021/05/29 06:54:41;;;;;;;3.67;3.17;;;;;;;16.58;51.84;100009.28;5051522;28;20762;-76
2021/05/29 06:59:52;;;;;;;3.88;2.95;;;;;;;16.80;51.09;100013.94;5054908;28;20320;-75
2021/05/29 07:02:19;;;;;;;4.75;2.95;;;;;;;16.92;50.72;100006.69;5054479;28;20292;-73
2021/05/29 07:04:45;;;;;;;4.13;2.85;;;;;;;17.02;49.83;99999.53;5055067;28;20217;-74
2021/05/29 07:07:11;;;;;;;5.53;3.30;;;;;;;17.28;49.39;100005.66;5055075;28;20291;-75
2021/05/29 07:09:38;;;;;;;2.95;2.65;;;;;;;17.00;49.71;100007.81;5054581;28;20229;-73
2021/05/29 07:12:04;;;;;;;3.17;2.88;;;;;;;17.01;49.73;100001.41;5055143;28;20492;-75
2021/05/29 07:14:30;;;;;;;3.10;2.80;;;;;;;17.17;49.50;100008.34;5054155;28;20221;-75
2021/05/29 07:16:56;;;;;;;4.57;2.83;;;;;;;17.16;48.92;100002.03;5055078;28;20189;-75
2021/05/29 07:19:25;;;;;;;3.10;2.80;;;;;;;17.24;49.03;100009.59;5055247;28;20247;-74
2021/05/29 07:21:51;;;;;;;4.45;2.92;;;;;;;17.40;48.83;100001.06;5054944;28;20671;-74
2021/05/29 07:24:19;;;;;;;5.43;4.80;;;;;;;17.63;47.76;100002.78;5054207;28;20201;-74
2021/05/29 07:26:46;;;;;;;3.35;3.05;;;;;;;17.89;47.52;100008.88;5054998;28;20728;-74
2021/05/29 07:29:12;;;;;;;3.00;2.80;;;;;;;17.80;47.45;100006.03;5054835;28;20229;-74
2021/05/29 07:31:38;;;;;;;3.00;2.65;;;;;;;17.91;47.25;100001.44;5054739;28;20217;-74
2021/05/29 07:34:04;;;;;;;3.10;2.90;;;;;;;18.07;46.75;100001.06;5054343;28;20272;-73
2021/05/29 07:36:32;;;;;;;4.55;3.30;;;;;;;17.99;46.53;100006.25;5054384;28;20283;-75
2021/05/29 07:38:58;;;;;;;4.30;3.00;;;;;;;17.98;46.61;99999.09;5054427;28;20233;-74
2021/05/29 07:41:24;;;;;;;2.65;2.45;;;;;;;18.04;45.94;100004.00;5053930;28;20245;-73
2021/05/29 07:43:50;;;;;;;4.78;3.13;;;;;;;18.38;46.66;100006.63;5053519;28;20201;-74
2021/05/29 07:46:18;;;;;;;4.32;3.15;;;;;;;18.19;46.41;100001.88;5054373;28;20187;-72
2021/05/29 07:48:44;;;;;;;2.63;2.40;;;;;;;18.05;45.23;100000.31;5054039;28;20280;-73
2021/05/29 07:51:11;;;;;;;3.22;2.90;;;;;;;18.28;45.66;100012.00;5054481;28;20202;-73
2021/05/29 07:53:40;;;;;;;6.40;3.03;;;;;;;18.24;45.18;100001.50;5054370;28;20243;-74
2021/05/29 07:56:10;;;;;;;3.25;2.95;;;;;;;18.39;45.95;100002.94;5054145;28;20287;-74
2021/05/29 07:58:36;;;;;;;4.20;2.90;;;;;;;18.74;45.22;100004.50;5054252;28;20343;-74
2021/05/29 08:01:03;;;;;;;3.03;2.70;;;;;;;18.75;43.77;100009.84;5053447;28;20295;-73
2021/05/29 08:03:30;;;;;;;2.50;2.30;;;;;;;19.06;43.22;100006.34;5054077;28;20195;-74
2021/05/29 08:05:56;;;;;;;2.90;2.70;;;;;;;18.42;43.36;100001.81;5053554;28;20589;-74
2021/05/29 08:08:23;;;;;;;3.17;2.92;;;;;;;18.57;43.97;100005.09;5054027;28;20201;-74
2021/05/29 08:10:52;;;;;;;2.78;2.50;;;;;;;18.48;42.82;100006.75;5053431;28;20237;-73
2021/05/29 08:13:19;;;;;;;2.58;2.35;;;;;;;18.75;42.20;100009.00;5053483;28;20197;-73
2021/05/29 08:15:47;;;;;;;4.35;2.33;;;;;;;19.21;41.37;100012.34;5053348;28;20232;-73
2021/05/29 08:18:15;;;;;;;3.95;2.45;;;;;;;19.27;41.08;100009.09;5052839;28;20230;-74
2021/05/29 08:20:42;;;;;;;4.50;2.55;;;;;;;19.26;41.49;100015.53;5052924;28;20551;-73
2021/05/29 08:23:08;;;;;;;23.45;11.70;;;;;;;19.48;41.00;100006.31;5053316;28;20267;-75
2021/05/29 08:25:35;;;;;;;2.50;2.30;;;;;;;19.61;41.11;100003.34;5053544;28;20209;-72
2021/05/29 08:28:03;;;;;;;3.25;2.20;;;;;;;19.64;41.02;100003.94;5053637;28;20216;-73
2021/05/29 08:30:29;;;;;;;2.55;2.35;;;;;;;19.27;41.22;100011.81;5052970;28;20197;-74
2021/05/29 08:32:56;;;;;;;3.03;2.72;;;;;;;19.52;40.83;100005.03;5053558;28;20193;-74
2021/05/29 08:35:22;;;;;;;3.17;2.28;;;;;;;19.14;41.49;100006.56;5052213;28;20640;-73
2021/05/29 08:37:48;;;;;;;4.53;2.38;;;;;;;19.29;41.05;100004.34;5052575;28;20275;-73
2021/05/29 08:40:17;;;;;;;4.03;2.65;;;;;;;19.44;39.53;100002.97;5052411;28;20322;-74
2021/05/29 08:42:44;;;;;;;2.70;2.20;;;;;;;18.85;40.12;100014.53;5052243;28;20202;-74
2021/05/29 08:45:13;;;;;;;5.40;2.85;;;;;;;18.93;40.56;100021.06;5052017;28;20554;-73
2021/05/29 08:47:39;;;;;;;3.30;2.80;;;;;;;19.23;39.69;100013.06;5049325;28;20286;-74
2021/05/29 08:50:10;;;;;;;4.85;2.90;;;;;;;19.19;41.36;100022.53;5053203;28;20526;-74
2021/05/29 08:52:37;;;;;;;3.03;2.33;;;;;;;19.59;40.15;100017.16;5052440;28;20193;-73
2021/05/29 08:55:06;;;;;;;3.65;2.90;;;;;;;19.74;39.01;100015.81;5052456;28;20290;-74
2021/05/29 08:57:33;;;;;;;3.30;3.00;;;;;;;19.67;38.89;100020.06;5052727;28;20529;-73
2021/05/29 09:00:00;;;;;;;6.63;2.63;;;;;;;19.54;39.51;100014.81;5051858;28;20200;-74
2021/05/29 09:02:27;;;;;;;2.65;2.45;;;;;;;19.64;39.46;100009.38;5051469;28;20206;-73
2021/05/29 09:05:02;;;;;;;3.63;2.75;;;;;;;20.03;38.94;100020.47;5052394;28;20294;-74
2021/05/29 09:07:28;;;;;;;4.55;2.88;;;;;;;19.54;37.95;100019.44;5052227;28;20704;-72
2021/05/29 09:10:16;;;;;;;2.65;2.42;;;;;;;19.63;37.43;100014.97;5052947;28;20188;-73
2021/05/29 09:13:00;;;;;;;7.18;2.90;;;;;;;19.88;38.35;100013.69;5051915;28;21014;-74
2021/05/29 09:15:40;;;;;;;2.58;2.33;;;;;;;19.97;38.42;100018.31;5051474;28;20202;-75
2021/05/29 09:18:07;;;;;;;2.88;2.60;;;;;;;19.72;37.16;100017.81;5052140;28;20200;-72
2021/05/29 09:20:34;;;;;;;3.25;2.70;;;;;;;20.03;36.76;100023.22;5051307;28;20192;-72
2021/05/29 09:23:01;;;;;;;4.13;2.35;;;;;;;20.18;36.53;100021.81;5051668;28;20553;-73
2021/05/29 09:25:28;;;;;;;4.05;2.85;;;;;;;20.26;37.41;100021.13;5051800;28;20190;-72
2021/05/29 09:27:56;;;;;;;4.55;2.22;;;;;;;20.13;37.09;100029.59;5051752;28;20623;-72
2021/05/29 09:30:37;;;;;;;2.90;2.53;;;;;;;20.23;37.26;100012.34;5051204;28;20209;-72
2021/05/29 09:33:21;;;;;;;5.15;2.45;;;;;;;20.25;37.00;100018.53;5051668;28;20609;-72
2021/05/29 09:35:53;;;;;;;2.50;2.30;;;;;;;20.30;36.86;100025.28;5051279;28;20226;-72
2021/05/29 09:38:19;;;;;;;4.68;2.60;;;;;;;20.65;36.31;100017.59;5051669;28;20572;-74
2021/05/29 09:40:53;;;;;;;3.67;2.60;;;;;;;20.66;35.88;100025.66;5050920;28;20250;-73
2021/05/29 09:43:19;;;;;;;2.70;2.47;;;;;;;20.94;36.45;100032.13;5051266;28;20639;-74
2021/05/29 09:45:46;;;;;;;2.47;2.28;;;;;;;21.10;36.22;100034.28;5051339;28;20568;-74
2021/05/29 09:48:16;;;;;;;4.20;2.50;;;;;;;21.13;35.63;100031.25;5051028;28;20200;-73
2021/05/29 09:51:03;;;;;;;4.05;2.78;;;;;;;21.43;34.99;100032.06;5051182;28;20494;-72
2021/05/29 09:53:31;;;;;;;7.10;2.72;;;;;;;21.06;35.11;100027.38;5045488;28;20197;-72
2021/05/29 09:55:57;;;;;;;2.77;2.27;;;;;;;21.04;35.68;100035.72;5051137;28;20213;-73
2021/05/29 09:58:50;;;;;;;3.30;2.37;;;;;;;21.30;34.27;100039.69;5051211;28;20519;-75
2021/05/29 10:01:53;;;;;;;2.80;2.60;;;;;;;21.15;34.77;100031.09;5050895;28;20534;-73
2021/05/29 10:04:39;;;;;;;2.83;2.20;;;;;;;20.74;36.02;100033.16;5051466;28;20534;-74
2021/05/29 10:07:07;;;;;;;3.40;2.30;;;;;;;20.42;35.79;100034.25;5051381;28;20439;-74
2021/05/29 10:09:34;;;;;;;4.22;2.75;;;;;;;20.92;35.66;100031.41;5051793;28;20547;-74
2021/05/29 10:12:01;;;;;;;3.13;2.27;;;;;;;21.12;34.97;100034.13;5051556;28;20186;-72
2021/05/29 10:14:30;;;;;;;2.27;1.80;;;;;;;21.11;34.61;100032.41;5050856;28;20446;-73
2021/05/29 10:16:58;;;;;;;4.27;1.90;;;;;;;21.16;34.27;100027.34;5051107;28;20945;-73
2021/05/29 10:19:25;;;;;;;7.53;2.90;;;;;;;20.92;34.41;100030.56;5050797;28;20428;-73
2021/05/29 10:21:53;;;;;;;2.40;2.20;;;;;;;20.85;34.50;100030.28;5051411;28;20522;-75
2021/05/29 10:24:20;;;;;;;3.13;2.30;;;;;;;21.34;34.84;100044.72;5051448;28;20459;-73
2021/05/29 10:26:48;;;;;;;2.40;2.20;;;;;;;21.91;33.98;100020.06;5051333;28;20893;-75
2021/05/29 10:29:15;;;;;;;2.27;2.10;;;;;;;21.69;33.71;100032.28;5051119;28;20447;-73
2021/05/29 10:31:42;;;;;;;2.60;2.40;;;;;;;22.04;33.81;100036.16;5054021;28;20423;-74
2021/05/29 10:34:09;;;;;;;4.07;2.87;;;;;;;21.41;34.20;100026.75;5055237;28;20704;-73
2021/05/29 10:36:44;;;;;;;3.40;2.60;;;;;;;21.33;34.74;100025.72;5054636;28;20944;-75
2021/05/29 10:39:13;;;;;;;2.33;2.13;;;;;;;20.44;35.53;100031.34;5055078;28;20964;-74
2021/05/29 10:41:53;;;;;;;2.17;2.00;;;;;;;20.63;35.86;100036.03;5055085;28;20467;-74
2021/05/29 10:44:37;;;;;;;2.90;1.97;;;;;;;20.44;36.37;100032.22;5054301;28;20542;-74
2021/05/29 10:47:14;;;;;;;2.40;1.80;;;;;;;20.68;36.12;100037.31;5055227;28;20466;-73
2021/05/29 10:50:00;;;;;;;4.80;2.40;;;;;;;21.56;34.75;100034.50;5055029;28;20459;-71
2021/05/29 10:52:49;;;;;;;2.53;2.30;;;;;;;20.77;35.69;100030.97;5055009;28;20808;-73
2021/05/29 10:55:26;;;;;;;2.70;2.20;;;;;;;20.35;36.40;100033.06;5055169;28;20193;-75
2021/05/29 10:57:55;;;;;;;3.42;2.00;;;;;;;20.08;37.04;100029.16;5054409;28;20431;-72
2021/05/29 11:00:57;;;;;;;3.00;2.53;;;;;;;20.50;36.36;100026.19;5054064;28;20208;-73
2021/05/29 11:03:25;;;;;;;2.75;2.13;;;;;;;21.01;35.85;100019.59;5055090;28;20214;-74
2021/05/29 11:05:52;;;;;;;3.43;3.13;;;;;;;21.60;35.11;100020.34;5054210;28;20185;-75
2021/05/29 11:08:51;;;;;;;2.00;1.90;;;;;;;21.75;33.88;100020.69;5054319;28;20436;-73
2021/05/29 11:11:56;;;;;;;3.97;2.20;;;;;;;21.35;33.83;100021.84;5054956;28;20924;-75
2021/05/29 11:14:24;;;;;;;4.23;2.00;;;;;;;20.89;34.04;100015.25;5053540;28;20442;-75
2021/05/29 11:17:10;;;;;;;3.73;2.10;;;;;;;20.75;35.24;100023.94;5054480;28;20475;-74
2021/05/29 11:19:37;;;;;;;4.90;2.40;;;;;;;21.11;34.19;100030.53;5054620;28;20481;-74
2021/05/29 11:22:06;;;;;;;1.87;1.77;;;;;;;21.68;33.46;100011.34;5053932;28;20576;-75
2021/05/29 11:24:34;;;;;;;2.10;1.90;;;;;;;21.71;33.45;100016.56;5054023;28;20468;-74
2021/05/29 11:27:03;;;;;;;2.60;1.80;;;;;;;21.78;33.50;99998.47;5053617;28;20456;-75
2021/05/29 11:29:29;;;;;;;2.80;2.00;;;;;;;21.57;32.76;100003.31;5053393;28;20593;-75
2021/05/29 11:31:56;;;;;;;2.03;1.90;;;;;;;21.23;33.21;100004.72;5053929;28;20443;-74
2021/05/29 11:34:22;;;;;;;3.53;2.60;;;;;;;21.14;34.02;100008.34;5053661;28;20436;-75
2021/05/29 11:36:49;;;;;;;3.20;1.80;;;;;;;20.96;33.97;100008.22;5053621;28;20446;-75
2021/05/29 11:39:17;;;;;;;1.60;1.50;;;;;;;20.68;33.69;100011.84;5053454;28;20508;-73
2021/05/29 11:41:43;;;;;;;2.03;1.87;;;;;;;20.29;35.31;100007.16;5053399;28;20961;-74
2021/05/29 11:44:21;;;;;;;4.13;2.60;;;;;;;20.91;34.78;100007.78;5053915;28;20826;-74